sensor_id;sensor_type;location;lat;lon;timestamp;temperature;humidity
52621;DHT22;38515;53.160;6.990;2023-02-23T00:01:58;7.00;99.90
52621;DHT22;38515;53.160;6.990;2023-02-23T00:04:28;7.00;99.90
52621;DHT22;38515;53.160;6.990;2023-02-23T00:06:54;6.90;99.90
52621;DHT22;38515;53.160;6.990;2023-02-23T00:09:20;6.90;99.90
52621;DHT22;38515;53.160;6.990;2023-02-23T00:11:50;6.90;99.90
52621;DHT22;38515;53.160;6.990;2023-02-23T00:14:17;6.90;99.90
52621;DHT22;38515;53.160;6.990;2023-02-23T00:16:43;6.90;99.90
52621;DHT22;38515;53.160;6.990;2023-02-23T00:19:11;6.90;99.90
52621;DHT22;38515;53.160;6.990;2023-02-23T00:21:40;6.90;99.90
52621;DHT22;38515;53.160;6.990;2023-02-23T00:24:08;6.90;99.90
52621;DHT22;38515;53.160;6.990;2023-02-23T00:26:37;6.80;99.90
52621;DHT22;38515;53.160;6.990;2023-02-23T00:29:09;6.90;99.90
52621;DHT22;38515;53.160;6.990;2023-02-23T00:31:35;6.90;99.90
52621;DHT22;38515;53.160;6.990;2023-02-23T00:34:03;6.90;99.90
52621;DHT22;38515;53.160;6.990;2023-02-23T00:36:32;6.80;99.90
52621;DHT22;38515;53.160;6.990;2023-02-23T00:39:00;6.70;99.90
52621;DHT22;38515;53.160;6.990;2023-02-23T00:41:27;6.80;99.90
52621;DHT22;38515;53.160;6.990;2023-02-23T00:43:58;6.70;99.90
52621;DHT22;38515;53.160;6.990;2023-02-23T00:46:27;6.70;99.90
52621;DHT22;38515;53.160;6.990;2023-02-23T00:48:55;6.80;99.90
52621;DHT22;38515;53.160;6.990;2023-02-23T00:51:23;6.80;99.90
52621;DHT22;38515;53.160;6.990;2023-02-23T00:53:52;6.80;99.90
52621;DHT22;38515;53.160;6.990;2023-02-23T00:56:18;6.70;99.90
52621;DHT22;38515;53.160;6.990;2023-02-23T00:58:43;6.70;99.90
52621;DHT22;38515;53.160;6.990;2023-02-23T01:01:11;6.80;99.90
52621;DHT22;38515;53.160;6.990;2023-02-23T01:03:39;6.80;99.90
52621;DHT22;38515;53.160;6.990;2023-02-23T01:06:08;6.90;99.90
52621;DHT22;38515;53.160;6.990;2023-02-23T01:08:37;6.80;99.90
52621;DHT22;38515;53.160;6.990;2023-02-23T01:11:12;6.80;99.90
52621;DHT22;38515;53.160;6.990;2023-02-23T01:13:41;6.80;99.90
52621;DHT22;38515;53.160;6.990;2023-02-23T01:16:14;6.80;99.90
52621;DHT22;38515;53.160;6.990;2023-02-23T01:18:42;6.80;99.90
52621;DHT22;38515;53.160;6.990;2023-02-23T01:21:27;6.80;99.90
52621;DHT22;38515;53.160;6.990;2023-02-23T01:23:54;6.90;99.90
52621;DHT22;38515;53.160;6.990;2023-02-23T01:26:25;7.10;99.90
52621;DHT22;38515;53.160;6.990;2023-02-23T01:28:53;6.90;99.90
52621;DHT22;38515;53.160;6.990;2023-02-23T01:31:21;6.90;99.90
52621;DHT22;38515;53.160;6.990;2023-02-23T01:33:47;6.90;99.90
52621;DHT22;38515;53.160;6.990;2023-02-23T01:36:17;6.90;99.90
52621;DHT22;38515;53.160;6.990;2023-02-23T01:38:43;6.90;99.90
52621;DHT22;38515;53.160;6.990;2023-02-23T01:41:09;6.90;99.90
52621;DHT22;38515;53.160;6.990;2023-02-23T01:43:35;6.90;99.90
52621;DHT22;38515;53.160;6.990;2023-02-23T01:46:19;6.90;99.90
52621;DHT22;38515;53.160;6.990;2023-02-23T01:48:45;6.90;99.90
52621;DHT22;38515;53.160;6.990;2023-02-23T01:51:16;6.90;99.90
52621;DHT22;38515;53.160;6.990;2023-02-23T01:53:47;6.90;99.90
52621;DHT22;38515;53.160;6.990;2023-02-23T01:56:20;6.90;99.90
52621;DHT22;38515;53.160;6.990;2023-02-23T01:58:50;6.90;99.90
52621;DHT22;38515;53.160;6.990;2023-02-23T02:01:17;6.90;99.90
52621;DHT22;38515;53.160;6.990;2023-02-23T02:03:57;6.90;99.90
52621;DHT22;38515;53.160;6.990;2023-02-23T02:06:24;6.90;99.90
52621;DHT22;38515;53.160;6.990;2023-02-23T02:08:57;7.00;99.90
52621;DHT22;38515;53.160;6.990;2023-02-23T02:11:24;7.00;99.90
52621;DHT22;38515;53.160;6.990;2023-02-23T02:39:32;7.00;99.90
52621;DHT22;38515;53.160;6.990;2023-02-23T02:41:48;7.00;99.90
52621;DHT22;38515;53.160;6.990;2023-02-23T02:47:18;6.90;99.90
52621;DHT22;38515;53.160;6.990;2023-02-23T02:52:55;6.90;99.90
52621;DHT22;38515;53.160;6.990;2023-02-23T02:55:27;6.90;99.90
52621;DHT22;38515;53.160;6.990;2023-02-23T02:57:59;6.90;99.90
52621;DHT22;38515;53.160;6.990;2023-02-23T03:00:40;6.80;99.90
52621;DHT22;38515;53.160;6.990;2023-02-23T03:03:41;6.80;99.90
52621;DHT22;38515;53.160;6.990;2023-02-23T03:06:30;6.90;99.90
52621;DHT22;38515;53.160;6.990;2023-02-23T03:15:51;6.90;99.90
52621;DHT22;38515;53.160;6.990;2023-02-23T03:18:43;6.90;99.90
52621;DHT22;38515;53.160;6.990;2023-02-23T03:28:33;6.90;99.90
52621;DHT22;38515;53.160;6.990;2023-02-23T03:34:27;6.90;99.90
52621;DHT22;38515;53.160;6.990;2023-02-23T03:37:56;7.00;99.90
52621;DHT22;38515;53.160;6.990;2023-02-23T03:40:35;6.90;99.90
52621;DHT22;38515;53.160;6.990;2023-02-23T03:43:37;6.90;99.90
52621;DHT22;38515;53.160;6.990;2023-02-23T03:46:24;6.90;99.90
52621;DHT22;38515;53.160;6.990;2023-02-23T03:49:11;6.90;99.90
52621;DHT22;38515;53.160;6.990;2023-02-23T03:52:05;6.90;99.90
52621;DHT22;38515;53.160;6.990;2023-02-23T03:54:56;7.00;99.90
52621;DHT22;38515;53.160;6.990;2023-02-23T03:57:46;7.00;99.90
52621;DHT22;38515;53.160;6.990;2023-02-23T04:00:38;7.00;99.90
52621;DHT22;38515;53.160;6.990;2023-02-23T04:03:25;7.00;99.90
52621;DHT22;38515;53.160;6.990;2023-02-23T04:06:12;7.00;99.90
52621;DHT22;38515;53.160;6.990;2023-02-23T04:09:02;7.00;99.90
52621;DHT22;38515;53.160;6.990;2023-02-23T04:12:36;7.00;99.90
52621;DHT22;38515;53.160;6.990;2023-02-23T04:15:33;7.00;99.90
52621;DHT22;38515;53.160;6.990;2023-02-23T04:18:03;6.90;99.90
52621;DHT22;38515;53.160;6.990;2023-02-23T04:20:29;6.90;99.90
52621;DHT22;38515;53.160;6.990;2023-02-23T04:22:55;7.00;99.90
52621;DHT22;38515;53.160;6.990;2023-02-23T04:25:21;7.00;99.90
52621;DHT22;38515;53.160;6.990;2023-02-23T04:27:48;7.00;99.90
52621;DHT22;38515;53.160;6.990;2023-02-23T04:30:14;7.00;99.90
52621;DHT22;38515;53.160;6.990;2023-02-23T04:32:40;6.90;99.90
52621;DHT22;38515;53.160;6.990;2023-02-23T04:35:06;6.90;99.90
52621;DHT22;38515;53.160;6.990;2023-02-23T04:37:32;7.00;99.90
52621;DHT22;38515;53.160;6.990;2023-02-23T04:39:58;6.90;99.90
52621;DHT22;38515;53.160;6.990;2023-02-23T04:42:24;6.90;99.90
52621;DHT22;38515;53.160;6.990;2023-02-23T04:44:50;6.90;99.90
52621;DHT22;38515;53.160;6.990;2023-02-23T04:47:16;7.00;99.90
52621;DHT22;38515;53.160;6.990;2023-02-23T04:49:42;7.00;99.90
52621;DHT22;38515;53.160;6.990;2023-02-23T04:52:08;7.00;99.90
52621;DHT22;38515;53.160;6.990;2023-02-23T04:54:38;7.00;99.90
52621;DHT22;38515;53.160;6.990;2023-02-23T04:57:04;7.00;99.90
52621;DHT22;38515;53.160;6.990;2023-02-23T04:59:31;7.00;99.90
52621;DHT22;38515;53.160;6.990;2023-02-23T05:01:57;6.90;99.90
52621;DHT22;38515;53.160;6.990;2023-02-23T05:04:23;6.90;99.90
52621;DHT22;38515;53.160;6.990;2023-02-23T05:06:49;7.00;99.90
52621;DHT22;38515;53.160;6.990;2023-02-23T05:09:15;6.90;99.90
52621;DHT22;38515;53.160;6.990;2023-02-23T05:11:41;6.90;99.90
52621;DHT22;38515;53.160;6.990;2023-02-23T05:14:07;6.90;99.90
52621;DHT22;38515;53.160;6.990;2023-02-23T05:16:35;6.90;99.90
52621;DHT22;38515;53.160;6.990;2023-02-23T05:19:01;6.90;99.90
52621;DHT22;38515;53.160;6.990;2023-02-23T05:21:27;6.90;99.90
52621;DHT22;38515;53.160;6.990;2023-02-23T05:23:53;6.90;99.90
52621;DHT22;38515;53.160;6.990;2023-02-23T05:26:19;6.90;99.90
52621;DHT22;38515;53.160;6.990;2023-02-23T05:28:45;6.90;99.90
52621;DHT22;38515;53.160;6.990;2023-02-23T05:31:11;6.80;99.90
52621;DHT22;38515;53.160;6.990;2023-02-23T05:33:38;6.90;99.90
52621;DHT22;38515;53.160;6.990;2023-02-23T05:36:15;6.90;99.90
52621;DHT22;38515;53.160;6.990;2023-02-23T05:38:42;6.80;99.90
52621;DHT22;38515;53.160;6.990;2023-02-23T05:41:10;6.90;99.90
52621;DHT22;38515;53.160;6.990;2023-02-23T05:43:37;6.90;99.90
52621;DHT22;38515;53.160;6.990;2023-02-23T05:46:07;6.90;99.90
52621;DHT22;38515;53.160;6.990;2023-02-23T05:48:34;6.90;99.90
52621;DHT22;38515;53.160;6.990;2023-02-23T05:51:06;6.90;99.90
52621;DHT22;38515;53.160;6.990;2023-02-23T05:53:32;6.90;99.90
52621;DHT22;38515;53.160;6.990;2023-02-23T05:55:58;6.90;99.90
52621;DHT22;38515;53.160;6.990;2023-02-23T05:58:24;7.00;99.90
52621;DHT22;38515;53.160;6.990;2023-02-23T06:00:50;7.00;99.90
52621;DHT22;38515;53.160;6.990;2023-02-23T06:03:16;7.00;99.90
52621;DHT22;38515;53.160;6.990;2023-02-23T06:05:52;7.00;99.90
52621;DHT22;38515;53.160;6.990;2023-02-23T06:08:18;7.00;99.90
52621;DHT22;38515;53.160;6.990;2023-02-23T06:10:44;7.00;99.90
52621;DHT22;38515;53.160;6.990;2023-02-23T06:13:11;7.00;99.90
52621;DHT22;38515;53.160;6.990;2023-02-23T06:15:37;6.90;99.90
52621;DHT22;38515;53.160;6.990;2023-02-23T06:18:03;6.90;99.90
52621;DHT22;38515;53.160;6.990;2023-02-23T06:20:29;6.90;99.90
52621;DHT22;38515;53.160;6.990;2023-02-23T06:22:55;7.00;99.90
52621;DHT22;38515;53.160;6.990;2023-02-23T06:25:22;7.00;99.90
52621;DHT22;38515;53.160;6.990;2023-02-23T06:27:48;7.00;99.90
52621;DHT22;38515;53.160;6.990;2023-02-23T06:30:15;7.00;99.90
52621;DHT22;38515;53.160;6.990;2023-02-23T06:32:41;6.90;99.90
52621;DHT22;38515;53.160;6.990;2023-02-23T06:35:07;7.00;99.90
52621;DHT22;38515;53.160;6.990;2023-02-23T06:37:34;6.90;99.90
52621;DHT22;38515;53.160;6.990;2023-02-23T06:40:02;6.90;99.90
52621;DHT22;38515;53.160;6.990;2023-02-23T06:42:28;7.00;99.90
52621;DHT22;38515;53.160;6.990;2023-02-23T06:44:54;6.90;99.90
52621;DHT22;38515;53.160;6.990;2023-02-23T06:47:19;7.00;99.90
52621;DHT22;38515;53.160;6.990;2023-02-23T06:49:45;6.90;99.90
52621;DHT22;38515;53.160;6.990;2023-02-23T06:52:12;7.00;99.90
52621;DHT22;38515;53.160;6.990;2023-02-23T06:54:39;7.00;99.90
52621;DHT22;38515;53.160;6.990;2023-02-23T06:57:07;7.00;99.90
52621;DHT22;38515;53.160;6.990;2023-02-23T06:59:33;7.00;99.90
52621;DHT22;38515;53.160;6.990;2023-02-23T07:01:59;7.00;99.90
52621;DHT22;38515;53.160;6.990;2023-02-23T07:04:24;7.00;99.90
52621;DHT22;38515;53.160;6.990;2023-02-23T07:06:51;7.10;99.90
52621;DHT22;38515;53.160;6.990;2023-02-23T07:09:17;7.10;99.90
52621;DHT22;38515;53.160;6.990;2023-02-23T07:11:43;7.00;99.90
52621;DHT22;38515;53.160;6.990;2023-02-23T07:14:10;7.00;99.90
52621;DHT22;38515;53.160;6.990;2023-02-23T07:16:36;7.10;99.90
52621;DHT22;38515;53.160;6.990;2023-02-23T07:19:04;7.00;99.90
52621;DHT22;38515;53.160;6.990;2023-02-23T07:21:30;7.00;99.90
52621;DHT22;38515;53.160;6.990;2023-02-23T07:23:57;7.00;99.90
52621;DHT22;38515;53.160;6.990;2023-02-23T07:26:23;7.00;99.90
52621;DHT22;38515;53.160;6.990;2023-02-23T07:28:49;7.00;99.90
52621;DHT22;38515;53.160;6.990;2023-02-23T07:31:15;7.00;99.90
52621;DHT22;38515;53.160;6.990;2023-02-23T07:33:42;7.00;99.90
52621;DHT22;38515;53.160;6.990;2023-02-23T07:36:08;7.00;99.90
52621;DHT22;38515;53.160;6.990;2023-02-23T07:38:34;7.00;99.90
52621;DHT22;38515;53.160;6.990;2023-02-23T07:41:03;7.00;99.90
52621;DHT22;38515;53.160;6.990;2023-02-23T07:43:29;7.00;99.90
52621;DHT22;38515;53.160;6.990;2023-02-23T07:45:59;7.00;99.90
52621;DHT22;38515;53.160;6.990;2023-02-23T07:48:26;7.00;99.90
52621;DHT22;38515;53.160;6.990;2023-02-23T07:50:52;7.00;99.90
52621;DHT22;38515;53.160;6.990;2023-02-23T07:53:18;7.00;99.90
52621;DHT22;38515;53.160;6.990;2023-02-23T07:55:44;6.90;99.90
52621;DHT22;38515;53.160;6.990;2023-02-23T07:58:10;7.00;99.90
52621;DHT22;38515;53.160;6.990;2023-02-23T08:00:38;7.00;99.90
52621;DHT22;38515;53.160;6.990;2023-02-23T08:03:05;7.00;99.90
52621;DHT22;38515;53.160;6.990;2023-02-23T08:05:31;7.00;99.90
52621;DHT22;38515;53.160;6.990;2023-02-23T08:07:58;7.00;99.90
52621;DHT22;38515;53.160;6.990;2023-02-23T08:10:24;7.00;99.90
52621;DHT22;38515;53.160;6.990;2023-02-23T08:12:50;6.90;99.90
52621;DHT22;38515;53.160;6.990;2023-02-23T08:15:16;7.00;99.90
52621;DHT22;38515;53.160;6.990;2023-02-23T08:17:42;7.00;99.90
52621;DHT22;38515;53.160;6.990;2023-02-23T08:20:09;7.00;99.90
52621;DHT22;38515;53.160;6.990;2023-02-23T08:22:35;7.00;99.90
52621;DHT22;38515;53.160;6.990;2023-02-23T08:25:01;7.00;99.90
52621;DHT22;38515;53.160;6.990;2023-02-23T08:27:33;7.00;99.90
52621;DHT22;38515;53.160;6.990;2023-02-23T08:29:59;7.00;99.90
52621;DHT22;38515;53.160;6.990;2023-02-23T08:32:31;6.90;99.90
52621;DHT22;38515;53.160;6.990;2023-02-23T08:34:59;7.00;99.90
52621;DHT22;38515;53.160;6.990;2023-02-23T08:37:28;7.00;99.90
52621;DHT22;38515;53.160;6.990;2023-02-23T08:39:54;7.00;99.90
52621;DHT22;38515;53.160;6.990;2023-02-23T08:42:20;6.90;99.90
52621;DHT22;38515;53.160;6.990;2023-02-23T08:44:47;6.90;99.90
52621;DHT22;38515;53.160;6.990;2023-02-23T08:47:16;6.90;99.90
52621;DHT22;38515;53.160;6.990;2023-02-23T08:49:51;6.90;99.90
52621;DHT22;38515;53.160;6.990;2023-02-23T08:52:19;6.90;99.90
52621;DHT22;38515;53.160;6.990;2023-02-23T08:54:45;6.80;99.90
52621;DHT22;38515;53.160;6.990;2023-02-23T08:57:12;6.80;99.90
52621;DHT22;38515;53.160;6.990;2023-02-23T08:59:38;6.80;99.90
52621;DHT22;38515;53.160;6.990;2023-02-23T09:02:05;6.80;99.90
52621;DHT22;38515;53.160;6.990;2023-02-23T09:04:33;6.80;99.90
52621;DHT22;38515;53.160;6.990;2023-02-23T09:07:03;6.80;99.90
52621;DHT22;38515;53.160;6.990;2023-02-23T09:09:29;6.80;99.90
52621;DHT22;38515;53.160;6.990;2023-02-23T09:11:55;6.90;99.90
52621;DHT22;38515;53.160;6.990;2023-02-23T09:14:21;6.90;99.90
52621;DHT22;38515;53.160;6.990;2023-02-23T09:16:47;6.90;99.90
52621;DHT22;38515;53.160;6.990;2023-02-23T09:19:13;6.90;99.90
52621;DHT22;38515;53.160;6.990;2023-02-23T09:21:39;7.00;99.90
52621;DHT22;38515;53.160;6.990;2023-02-23T09:24:05;7.00;99.90
52621;DHT22;38515;53.160;6.990;2023-02-23T09:26:32;7.00;99.90
52621;DHT22;38515;53.160;6.990;2023-02-23T09:28:59;7.00;99.90
52621;DHT22;38515;53.160;6.990;2023-02-23T09:31:25;7.00;99.90
52621;DHT22;38515;53.160;6.990;2023-02-23T09:33:52;7.00;99.90
52621;DHT22;38515;53.160;6.990;2023-02-23T09:36:22;7.90;99.90
52621;DHT22;38515;53.160;6.990;2023-02-23T09:38:50;7.10;99.90
52621;DHT22;38515;53.160;6.990;2023-02-23T09:44:01;7.10;99.90
52621;DHT22;38515;53.160;6.990;2023-02-23T09:49:01;7.20;99.90
52621;DHT22;38515;53.160;6.990;2023-02-23T09:51:29;8.00;99.90
52621;DHT22;38515;53.160;6.990;2023-02-23T09:53:59;7.10;99.90
52621;DHT22;38515;53.160;6.990;2023-02-23T09:56:39;7.10;99.90
52621;DHT22;38515;53.160;6.990;2023-02-23T09:59:09;7.20;99.90
52621;DHT22;38515;53.160;6.990;2023-02-23T10:07:18;7.00;99.90
52621;DHT22;38515;53.160;6.990;2023-02-23T10:12:49;7.20;99.90
52621;DHT22;38515;53.160;6.990;2023-02-23T10:21:14;7.30;99.90
52621;DHT22;38515;53.160;6.990;2023-02-23T10:26:30;7.50;99.90
52621;DHT22;38515;53.160;6.990;2023-02-23T10:28:57;7.60;99.90
52621;DHT22;38515;53.160;6.990;2023-02-23T10:31:41;7.60;99.90
52621;DHT22;38515;53.160;6.990;2023-02-23T10:34:15;7.70;99.90
52621;DHT22;38515;53.160;6.990;2023-02-23T10:37:01;7.70;99.90
52621;DHT22;38515;53.160;6.990;2023-02-23T10:39:32;7.70;99.90
52621;DHT22;38515;53.160;6.990;2023-02-23T10:42:01;7.70;99.90
52621;DHT22;38515;53.160;6.990;2023-02-23T10:44:28;7.80;99.90
52621;DHT22;38515;53.160;6.990;2023-02-23T10:47:02;7.80;99.90
52621;DHT22;38515;53.160;6.990;2023-02-23T10:49:47;7.80;99.90
52621;DHT22;38515;53.160;6.990;2023-02-23T10:52:25;7.80;99.90
52621;DHT22;38515;53.160;6.990;2023-02-23T10:54:52;7.80;99.90
52621;DHT22;38515;53.160;6.990;2023-02-23T10:57:22;7.80;99.90
52621;DHT22;38515;53.160;6.990;2023-02-23T11:02:46;8.40;99.90
52621;DHT22;38515;53.160;6.990;2023-02-23T11:05:35;7.90;99.90
52621;DHT22;38515;53.160;6.990;2023-02-23T11:08:37;7.90;99.90
52621;DHT22;38515;53.160;6.990;2023-02-23T11:13:48;7.90;99.90
52621;DHT22;38515;53.160;6.990;2023-02-23T11:18:57;8.10;99.90
52621;DHT22;38515;53.160;6.990;2023-02-23T11:21:29;8.10;99.90
52621;DHT22;38515;53.160;6.990;2023-02-23T11:26:45;8.20;99.90
52621;DHT22;38515;53.160;6.990;2023-02-23T11:29:37;8.20;99.90
52621;DHT22;38515;53.160;6.990;2023-02-23T11:32:11;8.20;99.90
52621;DHT22;38515;53.160;6.990;2023-02-23T11:34:38;8.20;99.90
52621;DHT22;38515;53.160;6.990;2023-02-23T11:37:30;8.20;99.90
52621;DHT22;38515;53.160;6.990;2023-02-23T11:39:58;8.20;99.90
52621;DHT22;38515;53.160;6.990;2023-02-23T11:42:26;8.20;99.90
52621;DHT22;38515;53.160;6.990;2023-02-23T11:45:15;8.20;99.90
52621;DHT22;38515;53.160;6.990;2023-02-23T11:47:46;8.10;99.90
52621;DHT22;38515;53.160;6.990;2023-02-23T11:50:27;8.20;99.90
52621;DHT22;38515;53.160;6.990;2023-02-23T11:53:04;8.10;99.90
52621;DHT22;38515;53.160;6.990;2023-02-23T11:55:31;8.10;99.90
52621;DHT22;38515;53.160;6.990;2023-02-23T12:01:02;8.10;99.90
52621;DHT22;38515;53.160;6.990;2023-02-23T12:03:32;8.10;99.90
52621;DHT22;38515;53.160;6.990;2023-02-23T12:05:58;8.00;99.90
52621;DHT22;38515;53.160;6.990;2023-02-23T12:08:39;8.10;99.90
52621;DHT22;38515;53.160;6.990;2023-02-23T12:11:11;8.10;99.90
52621;DHT22;38515;53.160;6.990;2023-02-23T12:13:44;8.30;99.90
52621;DHT22;38515;53.160;6.990;2023-02-23T12:16:26;8.50;99.90
52621;DHT22;38515;53.160;6.990;2023-02-23T12:21:35;8.60;99.90
52621;DHT22;38515;53.160;6.990;2023-02-23T12:26:55;8.50;99.90
52621;DHT22;38515;53.160;6.990;2023-02-23T12:30:11;8.50;99.90
52621;DHT22;38515;53.160;6.990;2023-02-23T12:32:15;8.40;99.90
52621;DHT22;38515;53.160;6.990;2023-02-23T12:37:47;8.40;99.90
52621;DHT22;38515;53.160;6.990;2023-02-23T12:40:29;8.40;99.90
52621;DHT22;38515;53.160;6.990;2023-02-23T12:43:21;8.30;99.90
52621;DHT22;38515;53.160;6.990;2023-02-23T12:49:15;8.20;99.90
52621;DHT22;38515;53.160;6.990;2023-02-23T12:52:03;8.20;99.90
52621;DHT22;38515;53.160;6.990;2023-02-23T12:54:34;8.20;99.90
52621;DHT22;38515;53.160;6.990;2023-02-23T13:06:03;8.20;99.90
52621;DHT22;38515;53.160;6.990;2023-02-23T13:09:14;8.10;99.90
52621;DHT22;38515;53.160;6.990;2023-02-23T13:14:47;8.00;99.90
52621;DHT22;38515;53.160;6.990;2023-02-23T13:20:36;7.90;99.90
52621;DHT22;38515;53.160;6.990;2023-02-23T13:23:10;7.90;99.90
52621;DHT22;38515;53.160;6.990;2023-02-23T13:28:51;7.90;99.90
52621;DHT22;38515;53.160;6.990;2023-02-23T13:31:26;7.80;99.90
52621;DHT22;38515;53.160;6.990;2023-02-23T13:33:56;7.80;99.90
52621;DHT22;38515;53.160;6.990;2023-02-23T13:36:23;7.80;99.90
52621;DHT22;38515;53.160;6.990;2023-02-23T13:39:16;7.70;99.90
52621;DHT22;38515;53.160;6.990;2023-02-23T13:42:03;7.70;99.90
52621;DHT22;38515;53.160;6.990;2023-02-23T13:44:57;7.50;99.90
52621;DHT22;38515;53.160;6.990;2023-02-23T13:53:01;6.90;99.90
52621;DHT22;38515;53.160;6.990;2023-02-23T13:55:36;6.80;99.90
52621;DHT22;38515;53.160;6.990;2023-02-23T13:58:14;6.70;99.90
52621;DHT22;38515;53.160;6.990;2023-02-23T14:00:41;6.60;99.90
52621;DHT22;38515;53.160;6.990;2023-02-23T14:03:21;6.60;99.90
52621;DHT22;38515;53.160;6.990;2023-02-23T14:05:53;6.50;99.90
52621;DHT22;38515;53.160;6.990;2023-02-23T14:08:36;6.50;99.90
52621;DHT22;38515;53.160;6.990;2023-02-23T14:11:02;6.50;99.90
52621;DHT22;38515;53.160;6.990;2023-02-23T14:13:34;7.60;99.90
52621;DHT22;38515;53.160;6.990;2023-02-23T14:16:14;6.40;99.90
52621;DHT22;38515;53.160;6.990;2023-02-23T14:18:54;6.40;99.90
52621;DHT22;38515;53.160;6.990;2023-02-23T14:21:36;6.50;99.90
52621;DHT22;38515;53.160;6.990;2023-02-23T14:24:16;6.40;99.90
52621;DHT22;38515;53.160;6.990;2023-02-23T14:29:25;6.30;99.90
52621;DHT22;38515;53.160;6.990;2023-02-23T14:34:56;6.10;99.90
52621;DHT22;38515;53.160;6.990;2023-02-23T14:40:18;6.30;99.90
52621;DHT22;38515;53.160;6.990;2023-02-23T14:42:48;6.20;99.90
52621;DHT22;38515;53.160;6.990;2023-02-23T14:47:46;6.20;99.90
52621;DHT22;38515;53.160;6.990;2023-02-23T14:50:24;6.10;99.90
52621;DHT22;38515;53.160;6.990;2023-02-23T14:52:50;6.10;99.90
52621;DHT22;38515;53.160;6.990;2023-02-23T14:57:46;5.90;99.90
52621;DHT22;38515;53.160;6.990;2023-02-23T15:00:27;5.90;99.90
52621;DHT22;38515;53.160;6.990;2023-02-23T15:05:24;5.80;99.90
52621;DHT22;38515;53.160;6.990;2023-02-23T15:07:51;5.80;99.90
52621;DHT22;38515;53.160;6.990;2023-02-23T15:10:38;5.80;99.90
52621;DHT22;38515;53.160;6.990;2023-02-23T15:15:52;5.80;99.90
52621;DHT22;38515;53.160;6.990;2023-02-23T15:18:23;5.90;99.90
52621;DHT22;38515;53.160;6.990;2023-02-23T15:20:54;5.90;99.90
52621;DHT22;38515;53.160;6.990;2023-02-23T15:23:21;5.90;99.90
52621;DHT22;38515;53.160;6.990;2023-02-23T15:25:47;6.00;99.90
52621;DHT22;38515;53.160;6.990;2023-02-23T15:28:25;6.00;99.90
52621;DHT22;38515;53.160;6.990;2023-02-23T15:30:54;6.10;99.90
52621;DHT22;38515;53.160;6.990;2023-02-23T15:33:21;6.20;99.90
52621;DHT22;38515;53.160;6.990;2023-02-23T15:36:12;6.20;99.90
52621;DHT22;38515;53.160;6.990;2023-02-23T15:38:45;6.20;99.90
52621;DHT22;38515;53.160;6.990;2023-02-23T15:43:44;6.20;99.90
52621;DHT22;38515;53.160;6.990;2023-02-23T15:46:20;6.10;99.90
52621;DHT22;38515;53.160;6.990;2023-02-23T15:48:50;6.20;99.90
52621;DHT22;38515;53.160;6.990;2023-02-23T15:54:09;6.20;99.90
52621;DHT22;38515;53.160;6.990;2023-02-23T15:56:41;6.20;99.90
52621;DHT22;38515;53.160;6.990;2023-02-23T15:59:15;6.10;99.90
52621;DHT22;38515;53.160;6.990;2023-02-23T16:01:45;6.20;99.90
52621;DHT22;38515;53.160;6.990;2023-02-23T16:04:16;6.10;99.90
52621;DHT22;38515;53.160;6.990;2023-02-23T16:06:52;6.10;99.90
52621;DHT22;38515;53.160;6.990;2023-02-23T16:12:02;6.00;99.90
52621;DHT22;38515;53.160;6.990;2023-02-23T16:14:45;6.00;99.90
52621;DHT22;38515;53.160;6.990;2023-02-23T16:19:54;6.00;99.90
52621;DHT22;38515;53.160;6.990;2023-02-23T16:22:24;6.00;99.90
52621;DHT22;38515;53.160;6.990;2023-02-23T16:25:03;5.90;99.90
52621;DHT22;38515;53.160;6.990;2023-02-23T16:27:30;5.90;99.90
52621;DHT22;38515;53.160;6.990;2023-02-23T16:30:13;5.90;99.90
52621;DHT22;38515;53.160;6.990;2023-02-23T16:32:41;5.90;99.90
52621;DHT22;38515;53.160;6.990;2023-02-23T16:35:18;5.90;99.90
52621;DHT22;38515;53.160;6.990;2023-02-23T16:38:01;5.90;99.90
52621;DHT22;38515;53.160;6.990;2023-02-23T16:40:27;5.90;99.90
52621;DHT22;38515;53.160;6.990;2023-02-23T16:42:53;5.80;99.90
52621;DHT22;38515;53.160;6.990;2023-02-23T16:45:24;5.80;99.90
52621;DHT22;38515;53.160;6.990;2023-02-23T16:47:51;5.70;99.90
52621;DHT22;38515;53.160;6.990;2023-02-23T16:50:23;5.90;99.90
52621;DHT22;38515;53.160;6.990;2023-02-23T16:52:51;5.90;99.90
52621;DHT22;38515;53.160;6.990;2023-02-23T16:55:25;5.80;99.90
52621;DHT22;38515;53.160;6.990;2023-02-23T16:57:55;5.80;99.90
52621;DHT22;38515;53.160;6.990;2023-02-23T17:00:25;5.70;99.90
52621;DHT22;38515;53.160;6.990;2023-02-23T17:02:53;5.70;99.90
52621;DHT22;38515;53.160;6.990;2023-02-23T17:05:21;5.70;99.90
52621;DHT22;38515;53.160;6.990;2023-02-23T17:07:49;5.70;99.90
52621;DHT22;38515;53.160;6.990;2023-02-23T17:10:36;5.70;99.90
52621;DHT22;38515;53.160;6.990;2023-02-23T17:13:04;5.70;99.90
52621;DHT22;38515;53.160;6.990;2023-02-23T17:15:34;5.70;99.90
52621;DHT22;38515;53.160;6.990;2023-02-23T17:18:01;5.70;99.90
52621;DHT22;38515;53.160;6.990;2023-02-23T17:20:27;5.70;99.90
52621;DHT22;38515;53.160;6.990;2023-02-23T17:22:56;5.70;99.90
52621;DHT22;38515;53.160;6.990;2023-02-23T17:25:23;5.70;99.90
52621;DHT22;38515;53.160;6.990;2023-02-23T17:27:55;5.60;99.90
52621;DHT22;38515;53.160;6.990;2023-02-23T17:30:22;5.70;99.90
52621;DHT22;38515;53.160;6.990;2023-02-23T17:32:50;5.60;99.90
52621;DHT22;38515;53.160;6.990;2023-02-23T17:35:17;5.60;99.90
52621;DHT22;38515;53.160;6.990;2023-02-23T17:37:43;5.60;99.90
52621;DHT22;38515;53.160;6.990;2023-02-23T17:40:14;5.60;99.90
52621;DHT22;38515;53.160;6.990;2023-02-23T17:42:40;5.50;99.90
52621;DHT22;38515;53.160;6.990;2023-02-23T17:45:07;5.60;99.90
52621;DHT22;38515;53.160;6.990;2023-02-23T17:47:35;5.50;99.90
52621;DHT22;38515;53.160;6.990;2023-02-23T17:50:03;5.50;99.90
52621;DHT22;38515;53.160;6.990;2023-02-23T17:52:29;5.40;99.90
52621;DHT22;38515;53.160;6.990;2023-02-23T17:54:55;5.50;99.90
52621;DHT22;38515;53.160;6.990;2023-02-23T17:57:22;5.40;99.90
52621;DHT22;38515;53.160;6.990;2023-02-23T17:59:48;5.30;99.90
52621;DHT22;38515;53.160;6.990;2023-02-23T18:02:17;5.30;99.90
52621;DHT22;38515;53.160;6.990;2023-02-23T18:04:46;5.20;99.90
52621;DHT22;38515;53.160;6.990;2023-02-23T18:07:16;5.10;99.90
52621;DHT22;38515;53.160;6.990;2023-02-23T18:09:42;5.00;99.90
52621;DHT22;38515;53.160;6.990;2023-02-23T18:12:08;4.90;99.90
52621;DHT22;38515;53.160;6.990;2023-02-23T18:14:34;4.90;99.90
52621;DHT22;38515;53.160;6.990;2023-02-23T18:17:03;4.80;99.90
52621;DHT22;38515;53.160;6.990;2023-02-23T18:19:31;4.70;99.90
52621;DHT22;38515;53.160;6.990;2023-02-23T18:21:57;4.60;99.90
52621;DHT22;38515;53.160;6.990;2023-02-23T18:24:24;4.50;99.90
52621;DHT22;38515;53.160;6.990;2023-02-23T18:26:52;4.40;99.90
52621;DHT22;38515;53.160;6.990;2023-02-23T18:29:29;4.20;99.90
52621;DHT22;38515;53.160;6.990;2023-02-23T18:31:57;4.20;99.90
52621;DHT22;38515;53.160;6.990;2023-02-23T18:34:23;4.00;99.90
52621;DHT22;38515;53.160;6.990;2023-02-23T18:36:50;3.90;99.90
52621;DHT22;38515;53.160;6.990;2023-02-23T18:39:16;3.90;99.90
52621;DHT22;38515;53.160;6.990;2023-02-23T18:41:42;3.80;99.90